Bombardier Canadair 604 Challenger from Lufttransportdienst des Bundes at Volkel.
 Regi:T-751  LARGER
 MSN Year:5530 2002
 Date of picture:2019-06-13 10:34
 Discription:Bought from REGA, Rettungsflug Garde.
 Flight: ARR BRN SUI564 Bern Bern-Alp Switzerland
 Logs: 4B7F44 T-751 --- 2019-06-13 09:39:09 Challenger 604 Switzerland Swissairforce Filderstadt, DE 0177 12950
2019/06/13 07:17 SUI564 SUI564 - T-751 a/c registered in Switzerland Swiss Air Force Lufttransport CL60
 Metar SA 13/06/2019 10:25 METAR EHVK 131025Z AUTO 20015G25KT 160V260 9999 FEW068 SCT074 OVC170 18/10 Q1011 BLU 19015G25KT 9999 SCT030=
 Hits: 38 ID: 2332

Debriefing: Photographed movements of Airports in NW-Europe.
The images of our site attendant is in authorisation from Queen of Sky.
Copying of images of this site have been prohibited in which manner without the authorisation of the photographer.
In behalf of the crew :"Thank you visiting us" - Contact
Factsheets Bombardier, Canadair 604 Challenger, Lufttransportdienst des Bundes, made by De Plane! © 2006 - 2022 All rights reserved


.